Burns Junction, Oregon
Current Conditions -  °F | °C
As of 2:55 AM on Tuesday 21 Oct 2014 (Local Time) from KMAN Reporting Station
Overcast Overcast  
Wind Chill: 52°   Ceiling: 7000
Heat Index: 52°   Visibility: 6mi
Dew Point: 50°   Wind: 12mph
Humidity: 94%   Direction: 300°WNW
Pressure: 29.91"   Gusts: 17mph
Location:  42.5961°N, 117.569°W
Report Text: KMAN 210855Z AUTO 30010G15KT 6SM FEW047 SCT050 OVC070 11/10 A2991 RMK AO1 P0002
Loading
Personal Weather Stations






























Interactive Weather Map
Tropical Storm Tracking
New forecast layout! Learn more

10-Day Weather Forecast

Advertisements
Track Severe Weather on mobile